EB1JAJ-2
43.21.72N 005.51.82W
IN73BI aprs.fi
zuletzt gehoert:
2022-08-16T14:32:10Z
zuerst gehoert:
2022-06-09T15:00:37Z

APRS Oviedo [IN73BI], 2 Stunde(n), EB1JAJ-2 [17:51:01, 0s].
33D00 43.21.63N 005.51.13WIN73BI 0.610km 53°NE15:01:41Z33-D-00 Protección Civil REMER / Delegación del Gobierno en Asturias
EA1JBU 43.21.85N 005.51.13WIN73BI 0.908km 31°NNE15:32:02ZEA1JBU(3EA1JBU-1)
EB1LA 43.21.42N 005.52.22WIN73BI 0.994km 270°W15:49:57Z`_%(3EB1LA-9)
EA1HFE 43.20.92N 005.50.79WIN73BI 1.317km 135°SE15:49:53Z`145.775MHz T077 -060 & 144.800 CT-136.5 OP.MAR _"(3EA1HFE-9)
EA1L 43.20.37N 005.51.13WIN73BI 2.009km 166°SSE15:50:06Zea1l@ure.es V=13.0V
Wind 222°/003kn, Böen bis 003kn, Temp 16.11c, Regen 0.0mm, letzte 24h 14.0mm, seit 0h 14.0mm, Baro 1017.7h, Hum: 0%(2EA1L-13)
LEHU 43.22.63N 005.49.57WIN73CJ 3.400km 49°NE15:30:04ZHelipuerto del HUCA: LEAS 241430Z 27005KT 210V300 9999 FEW030TCU BKN075 16/13 Q1019 TEMPO 3000 SHRA=
ED1ZAU 43.23.04N 005.52.75WIN73BJ 3.434km 330°NNW15:30:12ZRD625 438.5000/430.9000 CC1
EA1HWX 43.19.28N 005.50.98WIN73BH 4.047km 170°S15:31:01ZDMO - UHF 439.7250/431.0000 CC11(3EA1HWX-2)
MMDVM DMO 222.3400/222.3400 CC1(2EA1HWX-10)
EB1FE 43.19.20N 005.54.00WIN73BH 5.341km 219°SW15:31:06ZMMDVM MMDVM HS Hat 430.4000/430.4000 CC1(3EB1FE-1)
EA1ABW 43.24.77N 005.47.77WIN73CJ 7.967km 39°NE15:31:08ZMMDVM MMDVM HS Hat 439.8250/439.8250 CC1(3EA1ABW-1)
MMDVM MMDVM HS Hat 439.8250/439.8250 CC1(2EA1ABW-2)
LEMR 43.25.83N 005.49.60WIN73CK 8.534km 17°NNE15:30:03ZAerodromo de la Morgal (123.500MHz): LEAS 241430Z 27005KT 210V300 9999 FEW030TCU BKN075 16/13 Q1019 TEMPO 3000 SHRA=
LEGM 43.26.15N 005.49.84WIN73CK 9.039km 14°NNE15:30:04ZHelipuerto de La Morgal (123.500MHz): LEAS 241430Z 27005KT 210V300 9999 FEW030TCU BKN075 16/13 Q1019 TEMPO 3000 SHRA=
EA1IPU 43.26.21N 005.46.62WIN73CK 11.034km 36°NE15:31:44ZMMDVM MMDVM HS Hat 439.8000/439.8000 CC1(3EA1IPU-1)
EA1IMW 43.14.36N 005.46.93WIN73CF 14.476km 155°SSE15:31:43ZGRUPO RADIO GALENA (GRG) 430.4500/430.4500 CC1(3EA1IMW-1)
ED1ZAY 43.29.47N 005.56.54WIN73AL 16.393km 335°NNW15:30:08ZRD625 438.3000/430.7000 CC1
EA1JBL 43.12.28N 005.47.42WIN73CE 17.804km 162°SSE15:31:00ZMMDVM DVMega 435.3000/435.3000 CC1
EB1DGC 43.12.60N 005.45.59WIN73CF 18.193km 154°SSE15:30:29ZMMDVM MMDVM HS Hat 433.4500/433.4500 CC1
EA1HWA 43.12.00N 005.47.40WIN73CE 18.328km 162°SSE15:31:38ZMMDVM MMDVM HS Hat 433.4500/433.4500 CC1
ED1ZAS 43.27.52N 005.40.17WIN73DL 18.962km 53°NE15:30:09ZRD985 438.2250/430.6250 CC1
ED1ZAE 43.27.99N 005.40.54WIN73DL 19.094km 50°NE15:45:16Z2m Voice 145.5875 -0.600 Mhz(3ED1ZAE-C)
400 M. PICO SAN MARTIN (GIJON) 13.3V,20.5C(2ED1ZAE-3)
EA1FLQ 43.22.00N 005.36.35WIN73EI 20.412km 87°E15:31:40ZMMDVM DVMega 430.9750/430.9750 CC1
EA1AHA 43.32.72N 005.54.38WIN73BN 21.292km 350°N15:32:58ZWind 315°/003kn, Böen bis 004kn, Temp 17.22c, Regen 0.0mm, letzte 24h 9.7mm, seit 0h 9.7mm, Baro 1020.9h, Hum: 71%(3EA1AHA-13)
EA1RCG 43.09.45N 005.49.78WIN73CD 22.302km 174°S15:30:39ZGRUPO RADIO GALENA (GRG) 430.4500/430.4500 CC1(3EA1RCG-3)
EA1AQK 43.16.49N 005.35.99WIN73EG 22.798km 114°ESE15:30:27ZMMDVM MMDVM HS Hat 439.8500/439.8500 CC1(3EA1AQK-1)
EB1TK 43.32.22N 005.42.32WIN73DM 23.507km 32°NNE15:50:16ZWind 248°/005kn, Böen bis 010kn, Temp 18.33c, Regen 0.3mm, letzte 24h 9.9mm, seit 0h 9.9mm, Baro 1021.8h, Hum: 75%(3EB1TK-13)
EA1FFA 43.31.53N 005.40.64WIN73DM 23.748km 38°NE15:31:23ZMMDVM MMDVM HS Hat 438.8000/438.8000 CC1(3EA1FFA-1)
EA1FPN 43.32.39N 005.42.17WIN73DM 23.865km 32°NNE15:30:52ZMMDVM MMDVM HS Hat 439.8750/439.8750 CC1
EA1IEJ 43.31.83N 005.40.22WIN73DM 24.511km 38°NE15:31:29ZMMDVM MMDVM HS Hat 438.8500/438.8500 CC6(3EA1IEJ-1)
MMDVM DMO 222.3400/222.3400 CC1(2EA1IEJ-11)
LEEL 43.32.98N 005.41.71WIN73DN 25.113km 32°NNE15:30:04ZHelipuerto de El Musel: LEAS 241430Z 27005KT 210V300 9999 FEW030TCU BKN075 16/13 Q1019 TEMPO 3000 SHRA=
EB1EHT 43.32.47N 005.40.40WIN73DM 25.309km 36°NE15:46:15ZMMDVM MMDVM HS Hat 433.5550/433.5550 CC2(3EB1EHT-1)
440 MMDVM Voice 433.55500MHz +0.0000MHz, APRS for DMRGateway(2EB1EHT-D)
EB1GEM 43.30.00N 005.36.07WIN73EM 26.141km 52°NE15:46:48ZWX3in1Plus2.0 U=13.3V,T=??.?C/??.?F(3EB1GEM-3)
ED1ZAD 43.07.90N 005.38.52WIN73ED 30.559km 145°SE15:44:48ZED1ZAD-3 APRS Digi/Igate(3ED1ZAD-3)
EA1HJA 43.28.10N 005.30.45WIN73FL 30.901km 66°ENE15:50:31ZEA1HJA@URE.ES
IN73FL WX3IN1+ 2.0 - V=13.2V,TX TEMP=33.1C(2EA1HJA-2)
EA1JW 43.31.35N 005.28.83WIN73GM 35.600km 59°ENE15:31:43ZMMDVM MMDVM HS Hat 436.5000/436.5000 CC1(3EA1JW-3)
EA1JAY 43.29.33N 005.26.78WIN73GL 36.342km 66°ENE15:00:05Z434.525MHz Nodo TETRA DMO(3EA1JAY-4)
EA1JAY(2EA1JAY-2)
EA1FHR 43.28.72N 005.26.41WIN73GL 36.347km 68°ENE15:30:26ZMMDVM MMDVM HS Hat 439.1500/439.1500 CC1
EA1HWD 43.28.96N 005.26.30WIN73GL 36.662km 67°ENE15:31:18ZMMDVM MMDVM HS Hat 434.2500/434.2500 CC1
EA1DZR 43.12.88N 005.24.00WIN73HF 40.319km 113°ESE15:33:48ZMMDVM DVMega 431.1000/431.1000 CC1(3EA1DZR-1)
MMDVM MMDVM HS Hat 432.1000/432.1000 CC2(2EA1DZR-2)
MMDVM DV ADER 434.3500/434.3500 CC1(2EA1DZR-4)
440 MMDVM Voice 433.10000MHz +0.0000MHz, APRS for DMRGateway(2EA1DZR-D)
EC1KV 43.34.01N 006.16.01WIN63UN 40.380km 305°NW15:39:45Z VOLT.=13.7 V - TEMP.=??.? C(3EC1KV-1)
LETN 43.20.05N 006.22.69WIN63TI 42.131km 267°W15:30:04ZAerodromo de La Curiscada (Tineo): LEAS 241430Z 27005KT 210V300 9999 FEW030TCU BKN075 16/13 Q1019 TEMPO 3000 SHRA=

aprs.pl 5.0.011w DL3EL © 2006-2021 [5511193]